Denis Sullivan — WDA2917 — position and weather

sailwx.info

Track history (hours):
 
Tides and Currents Weather Stations Pressure Air Temp Water Temp Dewpoint Dewpoint Depression Visibility Wind Speed Wind Dir Waves Ship Positions

Denis Sullivan (United States)

From her homeport of Discovery World in Milwaukee, the schooner offers educational day sails and private charters for people of all ages from May to September.

Ship's website: http://www.discoveryworld.org/denisSullivan.php

Owner: Discovery World Ltd., MILWAUKEE, WI. More information available from US FCC via Universal Licensing System and Coast Guard Vessel Documentation Center.

Last reported at 2014-Sep-23 04:29 UTC. Time now 2014-Oct-22 00:08 UTC.
Position N 44°58' W 086°09'.
Warning: this ship's position is 28 days out of date.

Length 43 m.

Type: Sailing vessel. MMSI: 338327000.

Date/timePositionNaut miles runAvg speedWind from/ knotsBaromVisibWave heightAir tempDewpointWater temp
2014-Sep-23 04:29N 44°58' W 086°09'12 4.1
2014-Sep-23 01:28N 45°01' W 085°52'8 6.7
2014-Sep-23 00:18N 45°09' W 085°56'3 4.7
2014-Sep-22 23:33N 45°12' W 085°57'7 7.1
2014-Sep-22 22:33N 45°10' W 085°47'3 2.6
2014-Sep-22 21:33N 45°11' W 085°44'6 6.1
2014-Sep-22 20:33N 45°17' W 085°46'5 4.5
2014-Sep-22 19:33N 45°16' W 085°40'5 4.8
2014-Sep-22 18:33N 45°15' W 085°33'6 6.1
2014-Sep-22 17:33N 45°10' W 085°29'7 6.9
2014-Sep-22 16:33N 45°03' W 085°31'  
2014-Sep-17 19:08N 45°01' W 085°31'4 5.0
2014-Sep-17 18:26N 45°02' W 085°26'5 5.1
2014-Sep-17 17:33N 45°06' W 085°28'5 5.0
2014-Sep-17 16:33N 45°11' W 085°29'6 5.9
2014-Sep-17 15:33N 45°14' W 085°36'8 7.5
2014-Sep-17 14:32N 45°08' W 085°44'  
Track history (hours):
 
Tides and Currents Weather Stations Pressure Air Temp Water Temp Dewpoint Dewpoint Depression Visibility Wind Speed Wind Dir Waves Ship Positions

Denis Sullivan (United States)

From her homeport of Discovery World in Milwaukee, the schooner offers educational day sails and private charters for people of all ages from May to September.

Ship's website: http://www.discoveryworld.org/denisSullivan.php

Owner: Discovery World Ltd., MILWAUKEE, WI. More information available from US FCC via Universal Licensing System and Coast Guard Vessel Documentation Center.

Last reported at 2014-Sep-23 04:29 UTC. Time now 2014-Oct-22 00:08 UTC.
Position N 44°58' W 086°09'.
Warning: this ship's position is 28 days out of date.

Length 43 m.

Type: Sailing vessel. MMSI: 338327000.

Date/timePositionNaut miles runAvg speedWind from/ knotsBaromVisibWave heightAir tempDewpointWater temp
2014-Sep-23 04:29N 44°58' W 086°09'12 4.1
2014-Sep-23 01:28N 45°01' W 085°52'8 6.7
2014-Sep-23 00:18N 45°09' W 085°56'3 4.7
2014-Sep-22 23:33N 45°12' W 085°57'7 7.1
2014-Sep-22 22:33N 45°10' W 085°47'3 2.6
2014-Sep-22 21:33N 45°11' W 085°44'6 6.1
2014-Sep-22 20:33N 45°17' W 085°46'5 4.5
2014-Sep-22 19:33N 45°16' W 085°40'5 4.8
2014-Sep-22 18:33N 45°15' W 085°33'6 6.1
2014-Sep-22 17:33N 45°10' W 085°29'7 6.9
2014-Sep-22 16:33N 45°03' W 085°31'  
2014-Sep-17 19:08N 45°01' W 085°31'4 5.0
2014-Sep-17 18:26N 45°02' W 085°26'5 5.1
2014-Sep-17 17:33N 45°06' W 085°28'5 5.0
2014-Sep-17 16:33N 45°11' W 085°29'6 5.9
2014-Sep-17 15:33N 45°14' W 085°36'8 7.5
2014-Sep-17 14:32N 45°08' W 085°44'  

Dump ship's entire track history